Time;durP1;ratioP1;P1;durP2;ratioP2;P2;SDS_P1;SDS_P2;PMS_P1;PMS_P2;Temp;Humidity;BMP_temperature;BMP_pressure;BME280_temperature;BME280_humidity;BME280_pressure;Samples;Min_cycle;Max_cycle;Signal;HPM_P1;HPM_P2
2021/11/03 00:00:22;;;;;;;13.70;10.45;;;14.50;80.80;;;;;;5092694;28;20028;-76
2021/11/03 00:02:48;;;;;;;13.65;10.13;;;14.50;80.80;;;;;;5092761;28;20110;-75
2021/11/03 00:05:15;;;;;;;15.05;10.30;;;14.50;80.80;;;;;;5093641;28;20030;-75
2021/11/03 00:07:41;;;;;;;15.48;10.32;;;14.50;80.70;;;;;;5092436;28;20113;-74
2021/11/03 00:10:10;;;;;;;14.23;10.70;;;14.50;80.70;;;;;;5092617;28;20441;-75
2021/11/03 00:12:36;;;;;;;13.93;10.00;;;14.50;80.60;;;;;;5092444;28;20028;-75
2021/11/03 00:15:03;;;;;;;16.50;10.65;;;14.60;80.70;;;;;;5092558;28;20397;-75
2021/11/03 00:17:28;;;;;;;15.43;10.30;;;14.60;80.60;;;;;;5092230;28;20028;-76
2021/11/03 00:19:54;;;;;;;14.60;10.48;;;14.60;80.50;;;;;;5092564;28;20537;-75
2021/11/03 00:22:19;;;;;;;16.08;10.93;;;14.60;80.50;;;;;;5093545;28;20024;-76
2021/11/03 00:24:45;;;;;;;14.27;10.35;;;14.60;80.60;;;;;;5092225;28;20028;-76
2021/11/03 00:27:11;;;;;;;14.43;10.63;;;14.60;80.60;;;;;;5091934;28;20012;-75
2021/11/03 00:29:38;;;;;;;15.15;10.77;;;14.60;80.40;;;;;;5092099;28;20031;-75
2021/11/03 00:32:05;;;;;;;14.25;10.32;;;14.60;80.40;;;;;;5092219;28;20020;-76
2021/11/03 00:34:31;;;;;;;15.50;11.05;;;14.60;80.40;;;;;;5092017;28;20032;-76
2021/11/03 00:36:57;;;;;;;14.68;11.02;;;14.60;80.40;;;;;;5093089;28;20021;-75
2021/11/03 00:39:23;;;;;;;15.73;11.00;;;14.60;80.50;;;;;;5091192;28;20051;-76
2021/11/03 00:41:52;;;;;;;14.23;10.65;;;14.60;80.50;;;;;;5091942;28;20473;-75
2021/11/03 00:44:18;;;;;;;14.98;11.25;;;14.60;80.50;;;;;;5091205;28;20097;-75
2021/11/03 00:46:43;;;;;;;14.18;10.60;;;14.60;80.60;;;;;;5091521;28;20051;-75
2021/11/03 00:49:09;;;;;;;14.85;11.68;;;14.60;80.50;;;;;;5093010;28;20028;-76
2021/11/03 00:51:35;;;;;;;16.85;12.13;;;14.60;80.50;;;;;;5093122;28;20032;-76
2021/11/03 00:54:00;;;;;;;13.75;10.77;;;14.60;80.50;;;;;;5091893;28;20051;-76
2021/11/03 00:56:26;;;;;;;14.98;11.30;;;14.60;80.70;;;;;;5092743;28;20064;-75
2021/11/03 00:58:52;;;;;;;15.43;11.50;;;14.50;80.80;;;;;;5092823;28;20032;-76
2021/11/03 01:01:18;;;;;;;14.00;10.55;;;14.50;80.90;;;;;;5093048;28;20020;-76
2021/11/03 01:03:44;;;;;;;16.13;11.90;;;14.50;81.00;;;;;;5092737;28;20103;-75
2021/11/03 01:06:10;;;;;;;14.30;10.85;;;14.50;81.00;;;;;;5092496;28;20358;-75
2021/11/03 01:08:35;;;;;;;15.30;11.50;;;14.50;81.00;;;;;;5091485;28;20077;-76
2021/11/03 01:11:02;;;;;;;15.02;11.32;;;14.40;81.00;;;;;;5092743;28;20032;-76
2021/11/03 01:13:28;;;;;;;16.02;12.25;;;14.40;81.10;;;;;;5092694;28;20362;-75
2021/11/03 01:15:57;;;;;;;14.77;11.25;;;14.40;81.10;;;;;;5091045;28;20063;-76
2021/11/03 01:18:25;;;;;;;14.60;11.32;;;14.40;81.10;;;;;;5092510;28;20020;-75
2021/11/03 01:20:51;;;;;;;15.55;11.55;;;14.40;81.10;;;;;;5091399;28;20074;-75
2021/11/03 01:23:16;;;;;;;16.00;11.40;;;14.40;81.10;;;;;;5092578;28;20016;-75
2021/11/03 01:25:42;;;;;;;15.65;11.75;;;14.40;81.10;;;;;;5092385;28;20024;-76
2021/11/03 01:28:08;;;;;;;14.65;11.27;;;14.40;81.10;;;;;;5092344;28;20035;-75
2021/11/03 01:30:33;;;;;;;15.70;11.90;;;14.40;81.10;;;;;;5090751;28;20401;-75
2021/11/03 01:32:59;;;;;;;15.63;11.68;;;14.40;81.10;;;;;;5091115;28;20105;-76
2021/11/03 01:35:26;;;;;;;15.88;11.43;;;14.40;81.10;;;;;;5090729;28;20490;-75
2021/11/03 01:37:51;;;;;;;16.35;11.35;;;14.40;81.00;;;;;;5090999;28;20024;-76
2021/11/03 01:40:21;;;;;;;16.17;12.02;;;14.40;81.00;;;;;;5092340;28;20397;-76
2021/11/03 01:42:47;;;;;;;15.32;11.85;;;14.40;81.00;;;;;;5092234;28;20020;-76
2021/11/03 01:45:15;;;;;;;16.17;11.85;;;14.40;80.90;;;;;;5091925;28;20370;-76
2021/11/03 01:47:49;;;;;;;16.77;12.43;;;14.40;80.90;;;;;;5091947;28;20032;-76
2021/11/03 01:50:31;;;;;;;16.77;11.35;;;14.40;80.90;;;;;;5092271;28;20508;-75
2021/11/03 01:53:02;;;;;;;14.85;11.77;;;14.40;80.80;;;;;;5092215;28;20027;-75
2021/11/03 01:55:30;;;;;;;17.00;12.35;;;14.40;80.90;;;;;;5090757;28;20401;-75
2021/11/03 01:58:17;;;;;;;20.30;12.43;;;14.40;80.80;;;;;;5090760;28;20032;-75
2021/11/03 02:00:45;;;;;;;18.48;12.43;;;14.40;80.90;;;;;;5087237;28;20031;-75
2021/11/03 02:03:14;;;;;;;19.33;12.38;;;14.40;80.90;;;;;;5084153;28;20066;-75
2021/11/03 02:05:46;;;;;;;16.90;12.40;;;14.40;80.90;;;;;;5071306;28;20023;-75
2021/11/03 02:08:12;;;;;;;16.33;12.23;;;14.40;80.80;;;;;;5069803;28;20059;-75
2021/11/03 02:10:39;;;;;;;19.77;12.88;;;14.40;80.80;;;;;;5071374;28;20116;-75
2021/11/03 02:13:08;;;;;;;18.67;12.98;;;14.40;80.80;;;;;;5071699;28;20024;-75
2021/11/03 02:15:34;;;;;;;18.13;12.40;;;14.40;80.80;;;;;;5069697;28;20021;-75
2021/11/03 02:17:59;;;;;;;16.08;11.88;;;14.40;81.30;;;;;;5071269;28;20017;-75
2021/11/03 02:20:26;;;;;;;17.75;12.25;;;14.40;80.80;;;;;;5086095;28;20080;-76
2021/11/03 02:22:58;;;;;;;16.88;12.48;;;14.40;80.80;;;;;;5090237;28;20025;-76
2021/11/03 02:25:30;;;;;;;17.17;12.05;;;14.40;80.70;;;;;;5091218;28;20020;-75
2021/11/03 02:27:57;;;;;;;17.80;12.18;;;14.40;80.70;;;;;;5090172;28;20092;-75
2021/11/03 02:30:25;;;;;;;17.15;12.82;;;14.40;80.70;;;;;;5090144;28;20028;-76
2021/11/03 02:33:08;;;;;;;16.60;12.23;;;14.40;80.70;;;;;;5090414;28;20105;-75
2021/11/03 02:35:36;;;;;;;16.23;12.40;;;14.40;80.70;;;;;;5090066;28;20089;-74
2021/11/03 02:38:03;;;;;;;17.80;12.90;;;14.30;80.60;;;;;;5091212;28;20024;-75
2021/11/03 02:40:40;;;;;;;17.55;12.75;;;14.40;80.70;;;;;;5091331;28;20074;-75
2021/11/03 02:43:27;;;;;;;16.58;12.80;;;14.40;80.70;;;;;;5092840;28;20044;-75
2021/11/03 02:45:58;;;;;;;16.45;12.25;;;14.30;80.70;;;;;;5093173;28;20023;-75
2021/11/03 02:48:28;;;;;;;16.13;12.05;;;14.40;80.70;;;;;;5093906;28;20035;-75
2021/11/03 02:50:53;;;;;;;17.17;13.05;;;14.40;80.60;;;;;;5093832;28;20035;-76
2021/11/03 02:53:19;;;;;;;16.27;12.38;;;14.40;80.70;;;;;;5093532;28;20028;-75
2021/11/03 02:55:44;;;;;;;15.95;12.25;;;14.40;80.70;;;;;;5094929;28;20028;-75
2021/11/03 02:58:10;;;;;;;17.23;12.52;;;14.40;80.70;;;;;;5094905;28;20032;-75
2021/11/03 03:00:35;;;;;;;15.93;12.32;;;14.40;80.90;;;;;;5093170;28;20447;-75
2021/11/03 03:03:01;;;;;;;16.60;12.40;;;14.40;80.70;;;;;;5093482;28;20035;-76
2021/11/03 03:05:26;;;;;;;15.85;12.13;;;14.40;80.70;;;;;;5094467;28;20420;-75
2021/11/03 03:07:52;;;;;;;17.52;12.85;;;14.40;80.70;;;;;;5093083;28;20042;-75
2021/11/03 03:10:18;;;;;;;16.65;12.05;;;14.40;80.60;;;;;;5093513;28;20020;-75
2021/11/03 03:12:44;;;;;;;17.80;12.90;;;14.50;80.50;;;;;;5089493;28;20301;-76
2021/11/03 03:15:10;;;;;;;16.73;12.73;;;14.50;80.40;;;;;;5077461;28;20028;-75
2021/11/03 03:17:35;;;;;;;15.35;11.63;;;14.50;80.30;;;;;;5093180;28;20035;-75
2021/11/03 03:20:01;;;;;;;16.48;12.05;;;14.50;80.30;;;;;;5094557;28;20077;-75
2021/11/03 03:22:26;;;;;;;15.93;12.35;;;14.50;80.20;;;;;;5092785;28;20417;-75
2021/11/03 03:24:52;;;;;;;18.25;12.98;;;14.50;80.20;;;;;;5093273;28;20020;-76
2021/11/03 03:27:17;;;;;;;16.13;12.55;;;14.50;80.10;;;;;;5094218;28;20094;-74
2021/11/03 03:29:44;;;;;;;15.57;12.40;;;14.50;80.10;;;;;;5092836;28;20081;-75
2021/11/03 03:32:09;;;;;;;16.08;11.88;;;14.50;80.10;;;;;;5092969;28;20111;-75
2021/11/03 03:34:35;;;;;;;15.95;12.23;;;14.50;80.10;;;;;;5094227;28;20054;-75
2021/11/03 03:37:01;;;;;;;16.92;13.05;;;14.50;80.00;;;;;;5092394;28;20486;-76
2021/11/03 03:39:27;;;;;;;17.45;13.38;;;14.50;79.80;;;;;;5093882;28;20541;-75
2021/11/03 03:42:05;;;;;;;15.95;12.45;;;14.50;79.80;;;;;;5092166;28;20020;-76
2021/11/03 03:44:30;;;;;;;16.23;11.85;;;14.50;79.80;;;;;;5093762;28;20069;-76
2021/11/03 03:46:56;;;;;;;18.75;12.35;;;14.40;79.90;;;;;;5093845;28;20020;-75
2021/11/03 03:49:22;;;;;;;15.57;12.25;;;14.40;80.00;;;;;;5093821;28;20024;-75
2021/11/03 03:51:48;;;;;;;16.75;12.80;;;14.40;80.10;;;;;;5091940;28;20035;-76
2021/11/03 03:54:14;;;;;;;17.17;12.70;;;14.30;80.20;;;;;;5092248;28;20047;-76
2021/11/03 03:56:40;;;;;;;15.52;12.07;;;14.30;80.20;;;;;;5092272;28;20073;-75
2021/11/03 03:59:05;;;;;;;16.58;12.88;;;14.30;80.20;;;;;;5093147;28;20438;-76
2021/11/03 04:01:31;;;;;;;15.65;12.45;;;14.30;80.20;;;;;;5093666;28;20020;-76
2021/11/03 04:03:58;;;;;;;16.02;11.88;;;14.30;80.20;;;;;;5092600;28;20105;-76
2021/11/03 04:06:23;;;;;;;18.02;12.93;;;14.30;80.20;;;;;;5093171;28;20017;-75
2021/11/03 04:08:49;;;;;;;16.23;12.43;;;14.30;80.20;;;;;;5092364;28;20081;-75
2021/11/03 04:11:14;;;;;;;17.08;12.82;;;14.30;80.30;;;;;;5093324;28;20031;-76
2021/11/03 04:13:40;;;;;;;15.43;12.00;;;14.30;80.20;;;;;;5093105;28;20038;-76
2021/11/03 04:16:06;;;;;;;15.45;12.23;;;14.30;80.20;;;;;;5093100;28;20111;-76
2021/11/03 04:18:32;;;;;;;14.98;11.73;;;14.30;80.20;;;;;;5092057;28;20481;-76
2021/11/03 04:20:57;;;;;;;16.50;12.73;;;14.30;80.20;;;;;;5093398;28;20047;-76
2021/11/03 04:23:23;;;;;;;15.25;11.68;;;14.30;80.10;;;;;;5091852;28;20493;-75
2021/11/03 04:25:49;;;;;;;15.38;12.00;;;14.30;80.10;;;;;;5091811;28;20603;-76
2021/11/03 04:28:15;;;;;;;15.48;12.05;;;14.30;80.00;;;;;;5092899;28;20123;-76
2021/11/03 04:30:42;;;;;;;15.75;12.35;;;14.30;80.10;;;;;;5092915;28;20067;-75
2021/11/03 04:33:08;;;;;;;15.73;12.18;;;14.30;79.90;;;;;;5091938;28;20032;-75
2021/11/03 04:35:34;;;;;;;15.57;11.63;;;14.30;79.80;;;;;;5092772;28;20100;-75
2021/11/03 04:38:00;;;;;;;15.32;11.57;;;14.30;79.80;;;;;;5092625;28;20020;-75
2021/11/03 04:40:27;;;;;;;15.00;11.90;;;14.30;79.80;;;;;;5091680;28;20065;-75
2021/11/03 04:42:56;;;;;;;14.45;11.48;;;14.20;80.20;;;;;;5091561;28;20028;-75
2021/11/03 04:45:23;;;;;;;14.63;11.57;;;14.20;79.60;;;;;;5090867;28;20481;-75
2021/11/03 04:47:48;;;;;;;15.40;12.32;;;14.30;79.70;;;;;;5091496;28;20028;-75
2021/11/03 04:50:18;;;;;;;15.85;12.00;;;14.30;79.70;;;;;;5092818;28;20024;-75
2021/11/03 04:52:43;;;;;;;15.75;11.95;;;14.30;79.60;;;;;;5090595;28;20028;-75
2021/11/03 04:55:09;;;;;;;14.68;11.20;;;14.20;79.50;;;;;;5092515;28;20109;-75
2021/11/03 04:57:35;;;;;;;15.30;11.50;;;14.30;79.60;;;;;;5091194;28;20181;-75
2021/11/03 05:00:05;;;;;;;14.52;11.63;;;14.20;79.60;;;;;;5092314;28;20020;-75
2021/11/03 05:02:31;;;;;;;14.30;11.35;;;14.20;79.60;;;;;;5091409;28;20024;-76
2021/11/03 05:04:57;;;;;;;14.10;11.48;;;14.30;79.60;;;;;;5092156;28;20050;-76
2021/11/03 05:07:22;;;;;;;14.38;11.20;;;14.30;79.60;;;;;;5090435;28;20028;-74
2021/11/03 05:09:48;;;;;;;14.27;10.70;;;14.20;79.50;;;;;;5091196;28;20020;-75
2021/11/03 05:12:13;;;;;;;14.93;11.57;;;14.30;79.60;;;;;;5092323;28;20024;-74
2021/11/03 05:14:39;;;;;;;13.63;10.40;;;14.20;79.50;;;;;;5089521;28;20021;-75
2021/11/03 05:17:05;;;;;;;14.32;10.77;;;14.30;79.60;;;;;;5091877;28;20501;-75
2021/11/03 05:19:32;;;;;;;14.70;11.27;;;14.30;79.50;;;;;;5090945;28;20073;-75
2021/11/03 05:21:59;;;;;;;14.95;11.07;;;14.20;79.40;;;;;;5090420;28;20370;-75
2021/11/03 05:24:31;;;;;;;13.82;10.40;;;14.20;79.40;;;;;;5090532;28;20016;-76
2021/11/03 05:26:57;;;;;;;14.38;10.85;;;14.20;79.30;;;;;;5090425;28;20111;-75
2021/11/03 05:29:23;;;;;;;14.48;11.35;;;14.20;79.30;;;;;;5084680;28;20040;-76
2021/11/03 05:31:49;;;;;;;13.07;10.43;;;14.30;79.40;;;;;;5084164;28;20089;-75
2021/11/03 05:34:15;;;;;;;13.80;10.85;;;14.30;79.40;;;;;;5086974;28;20074;-75
2021/11/03 05:36:40;;;;;;;13.25;10.45;;;14.30;79.90;;;;;;5082450;28;20055;-76
2021/11/03 05:39:10;;;;;;;13.32;10.07;;;14.30;79.30;;;;;;5086958;28;20101;-76
2021/11/03 05:41:38;;;;;;;13.43;10.48;;;14.20;79.30;;;;;;5084928;28;20028;-75
2021/11/03 05:44:08;;;;;;;13.75;10.73;;;14.30;79.40;;;;;;5066806;28;20032;-74
2021/11/03 05:46:44;;;;;;;14.10;10.82;;;14.30;79.30;;;;;;5064239;28;20445;-74
2021/11/03 05:49:12;;;;;;;13.90;10.90;;;14.20;79.10;;;;;;5064519;28;20081;-75
2021/11/03 05:51:39;;;;;;;13.38;10.25;;;14.30;79.20;;;;;;5064617;28;20035;-75
2021/11/03 05:54:05;;;;;;;12.90;10.20;;;14.30;79.10;;;;;;5065558;28;20029;-76
2021/11/03 05:56:31;;;;;;;12.50;9.50;;;14.30;79.10;;;;;;5065225;28;20028;-75
2021/11/03 05:58:57;;;;;;;13.07;10.55;;;14.30;79.00;;;;;;5064557;28;20116;-76
2021/11/03 06:01:23;;;;;;;12.73;9.93;;;14.30;78.90;;;;;;5066557;28;20861;-77
2021/11/03 06:03:51;;;;;;;13.98;10.57;;;14.30;78.90;;;;;;5066331;28;20059;-74
2021/11/03 06:06:16;;;;;;;12.75;10.05;;;14.30;78.60;;;;;;5066268;28;20364;-77
2021/11/03 06:08:42;;;;;;;13.05;10.10;;;14.30;76.80;;;;;;5070501;28;20565;-77
2021/11/03 06:11:09;;;;;;;12.85;9.75;;;14.20;76.10;;;;;;5085434;28;20040;-77
2021/11/03 06:13:34;;;;;;;13.02;10.18;;;14.30;76.40;;;;;;5087688;28;20293;-76
2021/11/03 06:16:00;;;;;;;13.18;9.88;;;14.20;76.70;;;;;;5086359;28;20028;-78
2021/11/03 06:18:26;;;;;;;16.38;10.55;;;14.30;76.90;;;;;;5090683;28;20077;-78
2021/11/03 06:20:51;;;;;;;14.65;9.90;;;14.30;77.10;;;;;;5090472;28;20070;-78
2021/11/03 06:23:17;;;;;;;15.93;9.82;;;14.30;77.20;;;;;;5090776;28;20020;-78
2021/11/03 06:25:42;;;;;;;15.68;9.55;;;14.30;77.30;;;;;;5090506;28;20090;-77
2021/11/03 06:28:09;;;;;;;18.25;9.98;;;14.20;75.70;;;;;;5090251;28;20040;-77
2021/11/03 06:30:37;;;;;;;15.93;10.00;;;14.20;76.30;;;;;;5086280;28;20092;-77
2021/11/03 06:33:04;;;;;;;14.93;9.48;;;14.20;76.90;;;;;;5086553;28;20021;-76
2021/11/03 06:35:31;;;;;;;14.07;9.63;;;14.10;77.20;;;;;;5104415;28;20024;-76
2021/11/03 06:37:57;;;;;;;13.45;9.25;;;14.10;77.40;;;;;;5082956;28;20028;-75
2021/11/03 06:40:25;;;;;;;12.65;9.35;;;14.20;77.80;;;;;;5085001;28;20027;-76
2021/11/03 06:42:51;;;;;;;12.98;9.85;;;14.20;77.90;;;;;;5079919;28;20477;-77
2021/11/03 06:45:18;;;;;;;12.65;9.32;;;14.10;78.00;;;;;;5065026;28;20026;-77
2021/11/03 06:47:45;;;;;;;12.73;9.93;;;14.10;78.10;;;;;;5065485;28;20199;-76
2021/11/03 06:50:13;;;;;;;12.65;9.65;;;14.10;78.20;;;;;;5078464;28;20032;-75
2021/11/03 06:52:39;;;;;;;13.50;9.77;;;14.10;78.30;;;;;;5087383;28;20158;-76
2021/11/03 06:55:06;;;;;;;12.95;9.30;;;14.10;78.30;;;;;;5076067;28;20287;-75
2021/11/03 06:57:32;;;;;;;13.55;9.02;;;14.10;78.30;;;;;;5089006;28;20081;-77
2021/11/03 06:59:58;;;;;;;12.25;9.20;;;14.10;78.40;;;;;;5088396;28;20020;-77
2021/11/03 07:02:24;;;;;;;13.10;9.45;;;14.20;78.50;;;;;;5087758;28;20073;-76
2021/11/03 07:04:49;;;;;;;11.90;9.30;;;14.10;78.50;;;;;;5088976;28;20418;-77
2021/11/03 07:07:15;;;;;;;14.48;9.32;;;14.10;78.40;;;;;;5088603;28;20028;-77
2021/11/03 07:09:40;;;;;;;13.35;9.10;;;14.10;78.50;;;;;;5087053;28;20035;-77
2021/11/03 07:12:06;;;;;;;12.93;9.02;;;14.20;78.50;;;;;;5087169;28;20101;-78
2021/11/03 07:14:32;;;;;;;14.98;9.43;;;14.10;78.40;;;;;;5087470;28;20077;-79
2021/11/03 07:16:57;;;;;;;14.93;10.13;;;14.10;78.40;;;;;;5085172;28;20032;-76
2021/11/03 07:19:23;;;;;;;12.00;9.90;;;14.10;76.10;;;;;;5090631;28;20113;-75
2021/11/03 07:21:48;;;;;;;13.07;10.00;;;14.10;76.60;;;;;;5089476;28;20073;-76
2021/11/03 07:24:14;;;;;;;12.48;9.73;;;14.10;77.00;;;;;;5080233;28;20506;-76
2021/11/03 07:26:41;;;;;;;14.52;9.95;;;14.10;77.30;;;;;;5077367;28;20159;-76
2021/11/03 07:29:07;;;;;;;14.85;9.52;;;14.10;77.60;;;;;;5076730;28;20040;-75
2021/11/03 07:31:33;;;;;;;15.30;9.77;;;14.10;77.80;;;;;;5074184;28;20024;-76
2021/11/03 07:33:58;;;;;;;12.48;9.20;;;14.10;77.90;;;;;;5073684;28;20401;-77
2021/11/03 07:36:24;;;;;;;14.30;10.27;;;14.20;78.00;;;;;;5072693;28;20482;-76
2021/11/03 07:38:51;;;;;;;14.73;9.88;;;14.10;78.00;;;;;;5073747;28;20024;-76
2021/11/03 07:41:17;;;;;;;14.57;9.80;;;14.10;78.10;;;;;;5072016;28;20028;-76
2021/11/03 07:43:44;;;;;;;12.35;10.07;;;14.20;78.10;;;;;;5073828;28;20013;-76
2021/11/03 07:46:10;;;;;;;14.50;10.10;;;14.10;78.10;;;;;;5072235;28;20021;-75
2021/11/03 07:48:36;;;;;;;13.50;9.65;;;14.10;78.20;;;;;;5073317;28;20028;-76
2021/11/03 07:51:06;;;;;;;14.07;10.25;;;14.10;78.20;;;;;;5072444;28;20378;-76
2021/11/03 07:53:33;;;;;;;13.52;9.52;;;14.10;78.20;;;;;;5072242;28;20024;-77
2021/11/03 07:56:04;;;;;;;11.60;9.00;;;14.10;78.20;;;;;;5078363;28;20028;-76
2021/11/03 07:58:33;;;;;;;12.45;9.30;;;14.20;78.30;;;;;;5093548;28;20024;-77
2021/11/03 08:00:58;;;;;;;14.00;10.10;;;14.10;78.20;;;;;;5092404;28;20126;-78
2021/11/03 08:03:26;;;;;;;12.43;9.57;;;14.10;78.20;;;;;;5092309;28;20107;-75
2021/11/03 08:05:52;;;;;;;13.30;10.25;;;14.20;78.30;;;;;;5092054;28;20476;-74
2021/11/03 08:08:21;;;;;;;12.77;10.07;;;14.20;78.30;;;;;;5092159;28;20447;-76
2021/11/03 08:10:48;;;;;;;12.50;9.75;;;14.10;78.20;;;;;;5091893;28;20028;-75
2021/11/03 08:13:16;;;;;;;13.38;10.40;;;14.10;78.30;;;;;;5093378;28;20027;-77
2021/11/03 08:15:48;;;;;;;12.02;9.60;;;14.20;78.30;;;;;;5091695;28;20032;-76
2021/11/03 08:18:16;;;;;;;12.65;9.30;;;14.10;78.30;;;;;;5091548;28;20620;-75
2021/11/03 08:20:43;;;;;;;12.15;9.30;;;14.10;78.30;;;;;;5093149;28;20042;-75
2021/11/03 08:23:09;;;;;;;13.20;10.20;;;14.10;78.30;;;;;;5091981;28;20146;-74
2021/11/03 08:25:36;;;;;;;12.20;9.65;;;14.10;78.30;;;;;;5092626;28;20452;-77
2021/11/03 08:28:01;;;;;;;12.05;9.52;;;14.10;78.30;;;;;;5091685;28;20016;-76
2021/11/03 08:30:27;;;;;;;12.43;9.27;;;14.10;78.30;;;;;;5092088;28;20119;-74
2021/11/03 08:32:58;;;;;;;12.27;9.90;;;14.20;78.30;;;;;;5091618;28;20024;-75
2021/11/03 08:35:26;;;;;;;12.77;10.13;;;14.10;78.30;;;;;;5091675;28;20438;-76
2021/11/03 08:37:56;;;;;;;12.98;10.02;;;14.20;78.30;;;;;;5091627;28;20043;-75
2021/11/03 08:40:23;;;;;;;12.65;9.43;;;14.20;78.40;;;;;;5090036;28;20651;-76
2021/11/03 08:42:49;;;;;;;13.80;9.65;;;14.20;78.40;;;;;;5091609;28;20489;-75
2021/11/03 08:45:14;;;;;;;13.32;9.88;;;14.20;78.30;;;;;;5091382;28;20027;-75
2021/11/03 08:47:42;;;;;;;13.23;9.65;;;14.20;78.30;;;;;;5092373;28;20016;-75
2021/11/03 08:50:12;;;;;;;13.55;10.00;;;14.20;78.20;;;;;;5091560;28;20020;-76
2021/11/03 08:52:39;;;;;;;12.48;9.98;;;14.20;78.20;;;;;;5091501;28;20043;-75
2021/11/03 08:55:05;;;;;;;12.80;9.95;;;14.20;78.20;;;;;;5090794;28;20384;-73
2021/11/03 08:57:34;;;;;;;11.82;8.90;;;14.20;78.20;;;;;;5072671;28;20021;-75
2021/11/03 09:00:02;;;;;;;12.02;9.23;;;14.20;78.10;;;;;;5071014;28;20017;-76
2021/11/03 09:02:27;;;;;;;11.77;9.18;;;14.30;78.10;;;;;;5070538;28;20021;-75
2021/11/03 09:04:54;;;;;;;12.02;9.70;;;14.30;78.00;;;;;;5072143;28;20494;-75
2021/11/03 09:07:19;;;;;;;13.07;9.70;;;14.30;78.10;;;;;;5071901;28;20024;-75
2021/11/03 09:09:45;;;;;;;13.55;10.13;;;14.30;78.10;;;;;;5071565;28;20107;-75
2021/11/03 09:12:12;;;;;;;13.27;10.27;;;14.30;78.00;;;;;;5072098;28;20106;-75
2021/11/03 09:14:39;;;;;;;13.93;9.93;;;14.30;78.00;;;;;;5072140;28;20107;-75
2021/11/03 09:17:04;;;;;;;12.40;9.65;;;14.30;78.00;;;;;;5070233;28;20066;-78
2021/11/03 09:19:30;;;;;;;12.93;9.63;;;14.30;78.00;;;;;;5070663;28;20028;-75
2021/11/03 09:21:56;;;;;;;11.93;9.27;;;14.20;78.10;;;;;;5071981;28;20082;-75
2021/11/03 09:24:21;;;;;;;12.30;9.63;;;14.20;78.30;;;;;;5070728;28;20082;-75
2021/11/03 09:26:47;;;;;;;12.60;9.68;;;14.20;78.40;;;;;;5070003;28;20024;-76
2021/11/03 09:29:12;;;;;;;12.68;9.98;;;14.20;78.50;;;;;;5070397;28;20115;-75
2021/11/03 09:31:40;;;;;;;13.05;9.82;;;14.20;78.60;;;;;;5072490;28;20024;-75
2021/11/03 09:34:06;;;;;;;14.55;10.13;;;14.20;78.60;;;;;;5070122;28;20028;-75
2021/11/03 09:36:33;;;;;;;13.13;9.57;;;14.10;78.60;;;;;;5070206;28;20060;-74
2021/11/03 09:38:59;;;;;;;11.70;9.07;;;14.10;78.60;;;;;;5071499;28;20020;-75
2021/11/03 09:41:34;;;;;;;12.75;9.75;;;14.10;78.70;;;;;;5070108;28;20035;-75
2021/11/03 09:44:20;;;;;;;12.80;9.23;;;14.10;78.70;;;;;;5070637;28;20016;-75
2021/11/03 09:46:51;;;;;;;12.23;8.77;;;14.10;78.70;;;;;;5070899;28;20126;-76
2021/11/03 09:49:21;;;;;;;12.43;9.23;;;14.10;78.80;;;;;;5070535;28;20028;-75
2021/11/03 09:51:51;;;;;;;11.57;9.15;;;14.10;79.30;;;;;;5069959;28;20054;-75
2021/11/03 09:54:21;;;;;;;12.65;9.68;;;14.10;78.80;;;;;;5070187;28;20063;-75
2021/11/03 09:56:56;;;;;;;12.37;9.43;;;14.10;78.90;;;;;;5083928;28;20036;-76
2021/11/03 09:59:31;;;;;;;13.07;9.32;;;14.10;78.90;;;;;;5091642;28;20309;-75
2021/11/03 10:02:17;;;;;;;12.85;9.52;;;14.10;78.90;;;;;;5090098;28;20024;-76
2021/11/03 10:05:08;;;;;;;13.30;9.80;;;14.10;79.00;;;;;;5090630;28;20495;-75
2021/11/03 10:08:01;;;;;;;13.02;9.75;;;14.10;79.00;;;;;;5089471;28;20515;-76
2021/11/03 10:10:32;;;;;;;13.23;9.57;;;14.10;79.00;;;;;;5091503;28;20024;-75
2021/11/03 10:13:11;;;;;;;12.03;9.07;;;14.10;79.00;;;;;;5090624;28;20107;-75
2021/11/03 10:15:36;;;;;;;12.75;9.43;;;14.10;79.00;;;;;;5090056;28;20028;-75
2021/11/03 10:18:13;;;;;;;11.85;9.05;;;14.10;79.00;;;;;;5089951;28;20024;-78
2021/11/03 10:20:44;;;;;;;11.02;8.48;;;14.10;79.00;;;;;;5089199;28;20032;-78
2021/11/03 10:23:22;;;;;;;13.02;9.20;;;14.10;78.80;;;;;;5075933;28;20570;-77
2021/11/03 10:26:10;;;;;;;12.25;8.70;;;14.10;77.10;;;;;;5082783;28;20017;-76
2021/11/03 10:28:43;;;;;;;12.23;8.73;;;14.10;75.90;;;;;;5078088;28;20596;-75
2021/11/03 10:31:20;;;;;;;11.95;8.82;;;14.10;75.00;;;;;;5089960;28;20185;-75
2021/11/03 10:33:47;;;;;;;11.48;8.40;;;14.00;74.80;;;;;;5090253;28;20026;-75
2021/11/03 10:36:19;;;;;;;11.50;8.43;;;14.00;75.30;;;;;;5089770;28;20024;-75
2021/11/03 10:39:04;;;;;;;12.30;8.27;;;14.00;75.60;;;;;;5090414;28;20020;-77
2021/11/03 10:41:35;;;;;;;12.43;8.50;;;14.10;75.80;;;;;;5090346;28;20062;-76
2021/11/03 10:44:21;;;;;;;11.85;7.85;;;14.00;76.10;;;;;;5091547;28;20016;-76
2021/11/03 10:46:53;;;;;;;11.90;8.38;;;14.10;76.40;;;;;;5090769;28;20024;-76
2021/11/03 10:49:50;;;;;;;12.27;9.15;;;14.10;76.50;;;;;;5090156;28;20024;-78
2021/11/03 10:52:19;;;;;;;12.38;8.27;;;14.00;76.00;;;;;;5085024;28;20068;-76
2021/11/03 10:54:54;;;;;;;11.60;8.25;;;14.00;75.20;;;;;;5089785;28;20020;-76
2021/11/03 10:57:38;;;;;;;11.15;7.95;;;14.10;74.80;;;;;;5071711;28;20074;-76
2021/11/03 11:00:18;;;;;;;12.35;8.70;;;14.10;74.40;;;;;;5069682;28;20021;-76
2021/11/03 11:03:19;;;;;;;10.48;7.47;;;14.00;74.00;;;;;;5070567;28;20024;-76
2021/11/03 11:05:55;;;;;;;11.90;8.82;;;14.00;74.00;;;;;;5073319;28;20478;-76
2021/11/03 11:08:27;;;;;;;11.75;8.18;;;14.00;74.30;;;;;;5072891;28;20162;-75
2021/11/03 11:11:07;;;;;;;12.32;8.27;;;14.00;73.60;;;;;;5073169;28;20119;-77
2021/11/03 11:13:40;;;;;;;11.98;8.55;;;14.00;73.50;;;;;;5073504;28;20025;-77
2021/11/03 11:16:12;;;;;;;11.73;8.63;;;14.00;73.50;;;;;;5072499;28;20025;-77
2021/11/03 11:18:39;;;;;;;11.80;8.75;;;14.00;73.70;;;;;;5073002;28;20029;-77
2021/11/03 11:21:24;;;;;;;12.65;8.95;;;14.00;73.70;;;;;;5073039;28;20101;-75
2021/11/03 11:24:01;;;;;;;11.80;8.55;;;14.00;73.90;;;;;;5073893;28;20048;-76
2021/11/03 11:26:40;;;;;;;12.50;9.05;;;14.00;74.40;;;;;;5072678;28;20028;-76
2021/11/03 11:29:28;;;;;;;11.65;8.82;;;14.00;74.50;;;;;;5072793;28;20063;-77
2021/11/03 11:32:39;;;;;;;12.35;9.15;;;14.10;74.50;;;;;;5072370;28;20020;-76
2021/11/03 11:35:27;;;;;;;12.93;9.52;;;14.10;74.50;;;;;;5014968;28;20083;-77
2021/11/03 11:38:23;;;;;;;11.98;8.45;;;14.10;74.30;;;;;;5014143;28;20422;-77
2021/11/03 11:40:55;;;;;;;11.57;8.82;;;14.10;74.20;;;;;;5062298;28;20394;-77
2021/11/03 11:43:35;;;;;;;12.88;8.98;;;14.10;74.20;;;;;;5072830;28;20029;-77
2021/11/03 11:46:09;;;;;;;12.07;9.00;;;14.10;74.10;;;;;;5072114;28;20021;-76
2021/11/03 11:48:39;;;;;;;13.38;9.55;;;14.20;74.20;;;;;;5073785;28;20116;-75
2021/11/03 11:51:12;;;;;;;12.02;9.40;;;14.10;74.00;;;;;;5072569;28;20097;-75
2021/11/03 11:53:47;;;;;;;12.38;9.70;;;14.20;74.00;;;;;;5072219;28;20327;-75
2021/11/03 11:56:23;;;;;;;13.05;9.85;;;14.20;74.00;;;;;;5077925;28;20403;-77
2021/11/03 11:58:55;;;;;;;13.63;9.55;;;14.20;73.80;;;;;;5080550;28;20081;-76
2021/11/03 12:01:33;;;;;;;13.13;9.55;;;14.20;73.90;;;;;;5074128;28;20032;-77
2021/11/03 12:04:00;;;;;;;11.35;9.10;;;14.20;74.20;;;;;;5073254;28;20073;-76
2021/11/03 12:07:00;;;;;;;12.70;9.10;;;14.20;74.50;;;;;;5088549;28;20378;-75
2021/11/03 12:09:33;;;;;;;14.23;9.10;;;14.10;74.80;;;;;;5073697;28;20386;-75
2021/11/03 12:12:07;;;;;;;14.43;9.43;;;14.10;75.40;;;;;;5073908;28;20060;-75
2021/11/03 12:14:49;;;;;;;12.88;8.88;;;14.10;75.70;;;;;;5072291;28;20025;-76
2021/11/03 12:17:38;;;;;;;12.57;9.07;;;14.10;76.00;;;;;;5072212;28;20024;-76
2021/11/03 12:20:39;;;;;;;11.57;8.95;;;14.00;76.30;;;;;;5072206;28;20017;-75
2021/11/03 12:23:45;;;;;;;11.18;8.60;;;14.10;76.50;;;;;;5072321;28;20024;-77
2021/11/03 12:26:26;;;;;;;14.18;9.68;;;14.00;76.60;;;;;;5071540;28;20115;-75
2021/11/03 12:28:59;;;;;;;;;;;14.00;76.80;;;;;;5071967;28;20406;-76
2021/11/03 12:31:31;;;;;;;13.43;9.27;;;14.00;76.90;;;;;;5071152;28;19928;-76
2021/11/03 12:34:02;;;;;;;15.27;9.68;;;14.00;77.10;;;;;;5071632;28;20043;-75
2021/11/03 12:36:29;;;;;;;13.38;9.50;;;14.00;77.20;;;;;;5071159;28;20032;-76
2021/11/03 12:38:59;;;;;;;14.80;9.77;;;14.00;77.30;;;;;;5070551;28;20523;-76
2021/11/03 12:41:30;;;;;;;12.50;9.70;;;14.00;77.40;;;;;;5072499;28;20020;-75